To NAV CANADA Home Page Login to a new session Search on AWWS site Feedback and Comments Disclaimer Vers la page française équivalente Tips FAQ What's new on the site To the Forecasts and Observations / NOTAM section To "File a Flight Plan" website Publications and other links Update of the User's profile FIC Telephone Numbers My Weather Data Folder Route Weather Data Regional Weather Data Local Weather Data To the Forecasts and Observations / NOTAM section
Request Generated 08/04/2015 at 05:19:39 UTC . Weather information available at that time is displayed.

METAR/TAF

COMOX/BC    

METAR CYQQ 040500Z 35014KT 20SM FEW065 SCT250 18/11 A2994 RMK SC2CI2 SLP140=
METAR CYQQ 040400Z 35010KT 20SM FEW065 SCT250 19/12 A2992 RMK SC1CI1 SLP134=
METAR CYQQ 040300Z 34010KT 20SM FEW070 BKN250 20/12 A2991 RMK AC2CI1 SLP129=

TAF CYQQ 032339Z 0400/0424 35012G22KT P6SM FEW050 SCT100 BKN250
FM040600 33012G22KT P6SM FEW050
BECMG 0410/0412 32010KT
FM042100 02010KT P6SM BKN050 OVC250
RMK NXT FCST BY 040600Z=
Your time UTC time
Weather data provided by Environment Canada and NAV CANADA